RJNH(METAR)
08/13 14:00
METAR RJNH 130500Z 29014KT 270V330 9999 FEW030 SCT250 36/23 Q1008
RMK 1CU030 A2978=
戻る
トップページへ戻る
IMOC Co,.Ltd.